Wednesday, August 15, 2018, 11:00 PM CDT
Back to Local

KRSL, Russell Municipal Airport

Location: Russell, KS, United States Lat: 38.867
Local Time: 11:00 PM CDT ( 4:00 GMT) Lon: -98.817
Time Zone: US/Central Elev: 1863 ft

Show me the last for .
Show Decoded

2018-08-15 21:53 METAR KRSL 160253Z AUTO 08006KT 10SM CLR 22/21 A2997 RMK AO2 SLP134 T02220211
                 53017 =
2018-08-15 20:53 METAR KRSL 160153Z AUTO 11004KT 10SM CLR 24/21 A2995 RMK AO2 SLP127 T02440206 =
2018-08-15 19:53 METAR KRSL 160053Z AUTO 11003KT 10SM CLR 27/22 A2993 RMK AO2 SLP121 T02720217 =
2018-08-15 18:53 METAR KRSL 152353Z AUTO 00000KT 10SM CLR 28/20 A2992 RMK AO2 SLP115 T02830200
                 10300 20261 55004 =
2018-08-15 17:53 METAR KRSL 152253Z AUTO 00000KT 10SM CLR 29/19 A2992 RMK AO2 SLP114 T02940189 =
2018-08-15 16:53 METAR KRSL 152153Z AUTO 02004KT 10SM CLR 29/19 A2992 RMK AO2 SLP115 T02940189 =
2018-08-15 15:53 METAR KRSL 152053Z AUTO 02004KT 10SM CLR 29/18 A2993 RMK AO2 SLP118 T02890183
                 58015 =
2018-08-15 14:53 METAR KRSL 151953Z AUTO 04007KT 10SM CLR 29/19 A2995 RMK AO2 SLP124 T02890194 =
2018-08-15 13:53 METAR KRSL 151853Z AUTO 02008KT 10SM FEW038 28/20 A2996 RMK AO2 SLP129 T02780200
                 =
2018-08-15 12:53 METAR KRSL 151753Z AUTO 34008KT 10SM FEW028 SCT033 27/21 A2997 RMK AO2 SLP135
                 T02670211 10267 20183 58008 =
2018-08-15 11:53 METAR KRSL 151653Z AUTO 31004KT 10SM CLR 25/21 A2999 RMK AO2 SLP141 T02500206 =
2018-08-15 10:53 METAR KRSL 151553Z AUTO 10SM FEW011 23/21 A3000 RMK AO2 SLP145 T02330206 =
2018-08-15 10:15 METAR KRSL 151515Z AUTO 32006KT 8SM SCT007 22/21 A3000 RMK AO2 T02220206 =
2018-08-15 10:03 METAR KRSL 151503Z AUTO 32006KT 7SM BKN006 21/20 A3000 RMK AO2 CIG 005V008
                 T02110200 =
2018-08-15 09:53 METAR KRSL 151453Z AUTO 33005KT 6SM BR BKN004 22/21 A3000 RMK AO2 SLP147
                 T02170206 51017 =
2018-08-15 09:39 METAR KRSL 151439Z AUTO VRB05KT 5SM BR BKN004 19/19 A3000 RMK AO2 T01940194 =
2018-08-15 09:26 METAR KRSL 151426Z AUTO 32007KT 4SM BR OVC002 19/19 A3000 RMK AO2 T01940194 =
2018-08-15 09:14 METAR KRSL 151414Z AUTO 34008KT 2SM BR OVC002 19/19 A2999 RMK AO2 T01890189 =
2018-08-15 08:53 METAR KRSL 151353Z AUTO 32007KT M1/4SM FG VV002 19/19 A2999 RMK AO2 SLP144
                 T01890189 =
2018-08-15 07:53 METAR KRSL 151253Z AUTO 32009KT 1/2SM FG OVC002 18/18 A2998 RMK AO2 SLP140
                 T01830183 =
2018-08-15 07:46 METAR KRSL 151246Z AUTO 33008KT 1 1/4SM BR OVC002 18/18 A2998 RMK AO2 T01830183
                 =
2018-08-15 07:22 METAR KRSL 151222Z AUTO 34009KT 2 1/2SM BR BKN002 18/18 A2996 RMK AO2 T01830183
                 =
2018-08-15 07:12 METAR KRSL 151212Z AUTO 34009KT 2 1/2SM BR SCT003 18/18 A2995 RMK AO2 T01830183
                 =
2018-08-15 06:59 METAR KRSL 151159Z AUTO 35009KT 3SM BR SCT003 18/18 A2995 RMK AO2 T01830183 =
2018-08-15 06:53 METAR KRSL 151153Z AUTO 35008KT 2 1/2SM BR BKN003 18/18 A2995 RMK AO2 SLP130
                 70011 T01830183 10200 20183 53002 =
2018-08-15 06:15 METAR KRSL 151115Z AUTO 34006KT 4SM BR OVC003 18/18 A2995 RMK AO2 T01830183 =
2018-08-15 06:02 METAR KRSL 151102Z AUTO 35008KT 5SM BR OVC004 19/19 A2994 RMK AO2 T01890189 =
2018-08-15 05:53 METAR KRSL 151053Z AUTO 34008KT 6SM BR OVC006 19/19 A2994 RMK AO2 CIG 003V009
                 SLP125 T01940194 =
2018-08-15 05:43 METAR KRSL 151043Z AUTO 33007KT 5SM BR BKN006 OVC011 19/19 A2994 RMK AO2 CIG
                 004V008 T01940194 =
2018-08-15 05:16 METAR KRSL 151016Z AUTO 32006KT 4SM BR SCT002 OVC011 19/19 A2994 RMK AO2 CIG
                 007V012 T01890189 =
2018-08-15 04:53 METAR KRSL 150953Z AUTO 33005KT 4SM BR BKN002 BKN012 19/19 A2994 RMK AO2 SLP125
                 T01890189 =
2018-08-15 04:39 METAR KRSL 150939Z AUTO 35005KT 5SM BR BKN004 BKN017 19/19 A2994 RMK AO2
                 T01940194 =
2018-08-15 04:08 METAR KRSL 150908Z AUTO 36008KT 5SM BR SCT004 BKN011 OVC014 20/20 A2994 RMK AO2
                 T02000200 =
2018-08-15 03:53 METAR KRSL 150853Z AUTO 35008KT 7SM BKN005 BKN011 OVC026 20/20 A2995 RMK AO2
                 SLP126 T02000200 53002 =
2018-08-15 03:07 METAR KRSL 150807Z AUTO 33007KT 8SM BKN009 BKN014 OVC028 20/20 A2995 RMK AO2 CIG
                 007V012 T02000200 =
2018-08-15 02:53 METAR KRSL 150753Z AUTO 33007KT 8SM SCT012 OVC027 20/20 A2995 RMK AO2 SLP127
                 T02000200 =
2018-08-15 01:53 METAR KRSL 150653Z AUTO 33008KT 8SM FEW014 SCT020 OVC028 20/20 A2993 RMK AO2
                 SLP121 T02000200 =
2018-08-15 01:37 METAR KRSL 150637Z AUTO 33007KT 7SM BKN019 BKN026 OVC039 19/19 A2993 RMK AO2
                 T01940194 =
2018-08-15 01:30 METAR KRSL 150630Z AUTO 33007KT 8SM SCT017 SCT026 BKN039 19/19 A2993 RMK AO2
                 T01940194 =
2018-08-15 00:53 METAR KRSL 150553Z AUTO 32007KT 8SM BKN022 19/19 A2994 RMK AO2 SLP126 60011
                 T01940194 10228 20194 402610189 53005 =
2018-08-14 23:53 METAR KRSL 150453Z AUTO 33006KT 8SM CLR 19/19 A2993 RMK AO2 SLP120 T01940194 =

Support USWX by starting your Amazon purchase here.